Time;durP1;ratioP1;P1;durP2;ratioP2;P2;SDS_P1;SDS_P2;PMS_P1;PMS_P2;Temp;Humidity;BMP_temperature;BMP_pressure;BME280_temperature;BME280_humidity;BME280_pressure;Samples;Min_cycle;Max_cycle;Signal;HPM_P1;HPM_P2
2021/11/30 00:01:11;;;;;;;7.25;2.00;;;6.20;80.30;;;;;;5090550;28;20529;-68
2021/11/30 00:03:39;;;;;;;10.43;2.33;;;6.20;80.20;;;;;;5090398;28;20028;-69
2021/11/30 00:06:05;;;;;;;6.35;1.92;;;6.20;80.10;;;;;;5090334;28;20036;-68
2021/11/30 00:08:33;;;;;;;7.85;2.65;;;6.20;79.90;;;;;;5089956;28;20051;-69
2021/11/30 00:11:00;;;;;;;4.63;1.98;;;6.30;79.80;;;;;;5090346;28;20047;-68
2021/11/30 00:13:29;;;;;;;4.35;1.85;;;6.20;79.60;;;;;;5081286;28;20032;-68
2021/11/30 00:15:56;;;;;;;5.63;2.28;;;6.20;79.60;;;;;;5078905;28;20097;-69
2021/11/30 00:18:23;;;;;;;6.53;2.50;;;6.20;79.50;;;;;;5089814;28;20028;-68
2021/11/30 00:20:49;;;;;;;5.50;2.55;;;6.20;79.60;;;;;;5089942;28;20036;-68
2021/11/30 00:23:15;;;;;;;9.48;3.22;;;6.20;79.70;;;;;;5090384;28;20089;-69
2021/11/30 00:25:42;;;;;;;11.07;3.88;;;6.20;79.50;;;;;;5089392;28;20036;-68
2021/11/30 00:28:08;;;;;;;7.72;3.78;;;6.20;79.80;;;;;;5071358;28;20047;-68
2021/11/30 00:30:35;;;;;;;11.68;3.58;;;6.20;79.70;;;;;;5087781;28;20032;-68
2021/11/30 00:33:02;;;;;;;11.40;4.40;;;6.20;79.70;;;;;;5090161;28;20085;-68
2021/11/30 00:35:28;;;;;;;9.02;3.90;;;6.20;79.70;;;;;;5089185;28;20289;-68
2021/11/30 00:37:54;;;;;;;10.10;4.53;;;6.20;79.70;;;;;;5071303;28;20106;-68
2021/11/30 00:40:20;;;;;;;11.63;4.95;;;6.20;79.90;;;;;;5089367;28;20131;-68
2021/11/30 00:42:46;;;;;;;11.20;4.70;;;6.20;80.00;;;;;;5071820;28;20115;-69
2021/11/30 00:45:18;;;;;;;17.23;5.38;;;6.20;80.70;;;;;;5089094;28;20039;-69
2021/11/30 00:47:56;;;;;;;16.45;5.82;;;6.10;80.10;;;;;;5069276;28;20058;-68
2021/11/30 00:50:25;;;;;;;14.50;5.80;;;6.10;80.00;;;;;;5068703;28;20052;-69
2021/11/30 00:52:52;;;;;;;12.73;6.10;;;6.10;80.10;;;;;;5065802;28;20067;-68
2021/11/30 00:55:18;;;;;;;12.65;5.30;;;6.10;80.20;;;;;;5070927;28;20024;-69
2021/11/30 00:57:45;;;;;;;14.45;5.32;;;6.10;80.20;;;;;;5085928;28;20042;-69
2021/11/30 01:00:17;;;;;;;14.43;6.07;;;6.10;79.80;;;;;;5088811;28;20036;-68
2021/11/30 01:02:43;;;;;;;10.82;5.70;;;6.10;79.80;;;;;;5089582;28;20028;-68
2021/11/30 01:05:10;;;;;;;9.88;5.05;;;6.10;79.70;;;;;;5088419;28;20093;-68
2021/11/30 01:07:36;;;;;;;13.48;5.78;;;6.10;79.70;;;;;;5089253;28;20390;-69
2021/11/30 01:10:12;;;;;;;12.65;5.05;;;6.10;79.40;;;;;;5104699;28;20031;-69
2021/11/30 01:12:38;;;;;;;13.60;5.82;;;6.10;78.80;;;;;;5089868;28;20032;-69
2021/11/30 01:15:07;;;;;;;13.10;5.25;;;6.10;78.50;;;;;;5089548;28;20043;-68
2021/11/30 01:17:32;;;;;;;13.32;5.05;;;6.10;78.50;;;;;;5070704;28;20089;-69
2021/11/30 01:19:58;;;;;;;15.75;4.80;;;6.10;78.20;;;;;;5071429;28;20029;-68
2021/11/30 01:22:24;;;;;;;10.68;4.20;;;6.10;78.20;;;;;;5078558;28;20036;-69
2021/11/30 01:24:49;;;;;;;10.57;4.18;;;6.10;77.60;;;;;;5071173;28;20071;-69
2021/11/30 01:27:16;;;;;;;11.13;4.13;;;6.10;76.70;;;;;;5071059;28;20032;-69
2021/11/30 01:29:41;;;;;;;10.10;4.47;;;6.10;76.90;;;;;;5071294;28;20028;-69
2021/11/30 01:32:08;;;;;;;12.52;4.35;;;6.10;77.20;;;;;;5089862;28;20040;-69
2021/11/30 01:34:34;;;;;;;12.02;4.05;;;6.00;76.80;;;;;;5054834;28;20032;-69
2021/11/30 01:37:00;;;;;;;8.43;4.22;;;6.10;76.90;;;;;;5088681;28;20032;-69
2021/11/30 01:39:25;;;;;;;9.23;4.30;;;6.00;77.00;;;;;;5053916;28;20490;-68
2021/11/30 01:41:52;;;;;;;9.75;4.28;;;6.00;77.40;;;;;;5068725;28;20036;-69
2021/11/30 01:44:55;;;;;;;10.25;4.55;;;6.00;77.70;;;;;;5085073;28;20028;-68
2021/11/30 01:49:55;;;;;;;11.02;4.72;;;5.90;78.40;;;;;;5082190;28;20035;-69
2021/11/30 01:52:21;;;;;;;10.45;5.22;;;5.90;79.00;;;;;;5089323;28;20376;-68
2021/11/30 01:54:49;;;;;;;14.48;5.38;;;5.80;79.40;;;;;;5088229;28;20108;-68
2021/11/30 01:57:17;;;;;;;9.77;4.97;;;5.80;80.00;;;;;;5089023;28;20032;-69
2021/11/30 01:59:43;;;;;;;12.65;5.28;;;5.80;80.30;;;;;;5089214;28;20017;-68
2021/11/30 02:02:10;;;;;;;12.90;5.38;;;5.70;80.70;;;;;;5089125;28;20028;-68
2021/11/30 02:04:37;;;;;;;15.48;6.30;;;5.60;81.10;;;;;;5079126;28;20054;-68
2021/11/30 02:07:04;;;;;;;21.20;7.22;;;5.60;81.50;;;;;;5075238;28;20423;-68
2021/11/30 02:09:30;;;;;;;16.40;6.55;;;5.50;82.00;;;;;;5053182;28;20025;-68
2021/11/30 02:11:56;;;;;;;21.35;7.35;;;5.50;82.40;;;;;;5086233;28;20028;-68
2021/11/30 02:14:22;;;;;;;18.95;7.35;;;5.50;82.80;;;;;;5065283;28;20040;-68
2021/11/30 02:16:48;;;;;;;20.80;7.50;;;5.40;82.80;;;;;;5092134;28;20454;-69
2021/11/30 02:19:14;;;;;;;25.02;8.15;;;5.40;83.00;;;;;;5078287;28;20024;-68
2021/11/30 02:21:41;;;;;;;19.65;7.72;;;5.40;83.80;;;;;;5092133;28;20526;-69
2021/11/30 02:24:08;;;;;;;25.35;9.35;;;5.40;83.30;;;;;;5074138;28;20030;-69
2021/11/30 02:26:36;;;;;;;28.35;9.43;;;5.40;83.60;;;;;;5091768;28;20036;-69
2021/11/30 02:29:06;;;;;;;24.88;9.85;;;5.40;83.80;;;;;;5086107;28;20463;-69
2021/11/30 02:31:35;;;;;;;21.10;9.77;;;5.40;84.10;;;;;;5087497;28;20076;-69
2021/11/30 02:34:04;;;;;;;23.55;9.50;;;5.30;84.30;;;;;;5092471;28;20054;-68
2021/11/30 02:36:49;;;;;;;21.25;8.98;;;5.30;84.50;;;;;;5085105;28;20041;-69
2021/11/30 02:39:18;;;;;;;20.90;9.18;;;5.30;84.60;;;;;;5091392;28;20046;-69
2021/11/30 02:41:45;;;;;;;26.33;10.27;;;5.30;84.70;;;;;;5072084;28;20115;-68
2021/11/30 02:44:16;;;;;;;23.70;9.65;;;5.30;84.80;;;;;;5092203;28;20047;-68
2021/11/30 02:46:48;;;;;;;21.75;8.80;;;5.30;85.10;;;;;;5085033;28;20701;-68
2021/11/30 02:49:19;;;;;;;18.13;8.80;;;5.20;85.20;;;;;;5097214;28;20020;-68
2021/11/30 02:51:49;;;;;;;18.15;8.68;;;5.20;85.40;;;;;;5092277;28;20418;-68
2021/11/30 02:54:21;;;;;;;18.58;9.57;;;5.20;85.70;;;;;;5091578;28;20545;-68
2021/11/30 02:56:49;;;;;;;;;;;5.20;86.00;;;;;;5091431;28;20115;-68
2021/11/30 02:59:15;;;;;;;16.80;10.00;;;5.20;86.00;;;;;;5073683;28;19911;-69
2021/11/30 03:01:50;;;;;;;17.75;9.50;;;5.10;86.10;;;;;;5091189;28;20390;-69
2021/11/30 03:04:15;;;;;;;19.33;9.93;;;5.10;86.40;;;;;;5082176;28;20036;-69
2021/11/30 03:06:42;;;;;;;18.92;10.82;;;5.10;86.50;;;;;;5090438;28;20110;-69
2021/11/30 03:09:08;;;;;;;16.50;10.52;;;5.10;86.70;;;;;;5091700;28;20039;-69
2021/11/30 03:11:34;;;;;;;19.80;10.90;;;5.10;86.90;;;;;;5090745;28;20035;-69
2021/11/30 03:14:00;;;;;;;18.88;12.20;;;5.10;87.20;;;;;;5091829;28;20439;-69
2021/11/30 03:16:26;;;;;;;18.95;10.52;;;5.10;87.30;;;;;;5073623;28;20151;-69
2021/11/30 03:18:52;;;;;;;21.48;12.48;;;5.10;87.50;;;;;;5090705;28;20031;-69
2021/11/30 03:21:18;;;;;;;24.30;13.88;;;5.10;87.70;;;;;;5074661;28;20056;-69
2021/11/30 03:23:44;;;;;;;19.38;13.02;;;5.10;87.90;;;;;;5074800;28;20043;-69
2021/11/30 03:26:10;;;;;;;18.83;12.35;;;5.10;88.10;;;;;;5075025;28;20040;-69
2021/11/30 03:28:37;;;;;;;24.20;15.50;;;5.20;88.30;;;;;;5091465;28;20032;-69
2021/11/30 03:31:06;;;;;;;17.67;12.82;;;5.20;88.40;;;;;;5091373;28;20485;-68
2021/11/30 03:36:17;;;;;;;23.15;16.77;;;5.20;88.60;;;;;;5090382;28;20101;-69
2021/11/30 03:38:43;;;;;;;20.05;14.48;;;5.30;89.00;;;;;;5090530;28;20122;-68
2021/11/30 03:41:09;;;;;;;21.13;15.18;;;5.20;89.10;;;;;;5090543;28;20792;-69
2021/11/30 03:43:36;;;;;;;20.05;15.25;;;5.30;89.30;;;;;;5090584;28;20093;-69
2021/11/30 03:46:03;;;;;;;20.98;15.55;;;5.30;89.40;;;;;;5072146;28;20081;-69
2021/11/30 03:48:28;;;;;;;18.00;13.25;;;5.30;89.40;;;;;;5090839;28;20433;-69
2021/11/30 03:50:54;;;;;;;16.55;14.25;;;5.30;89.40;;;;;;5090793;28;20074;-68
2021/11/30 03:53:21;;;;;;;22.35;16.85;;;5.30;89.70;;;;;;5089520;28;20040;-69
2021/11/30 03:55:46;;;;;;;19.67;15.30;;;5.40;90.00;;;;;;5090091;28;20016;-69
2021/11/30 03:58:12;;;;;;;20.65;17.45;;;5.40;90.00;;;;;;5090464;28;20078;-69
2021/11/30 04:00:38;;;;;;;19.50;15.88;;;5.40;90.10;;;;;;5090328;28;20081;-69
2021/11/30 04:03:05;;;;;;;24.30;17.95;;;5.40;90.20;;;;;;5072292;28;20028;-69
2021/11/30 04:05:31;;;;;;;15.27;13.70;;;5.40;90.20;;;;;;5090693;28;20047;-69
2021/11/30 04:07:56;;;;;;;18.95;15.18;;;5.40;90.40;;;;;;5090450;28;21144;-69
2021/11/30 04:10:23;;;;;;;19.25;15.98;;;5.50;90.40;;;;;;5070829;28;20111;-69
2021/11/30 04:12:50;;;;;;;18.48;15.88;;;5.50;90.50;;;;;;5086309;28;20043;-69
2021/11/30 04:15:16;;;;;;;15.27;13.63;;;5.50;90.60;;;;;;5090070;28;20031;-69
2021/11/30 04:17:42;;;;;;;16.15;14.52;;;5.50;90.60;;;;;;5089710;28;20048;-69
2021/11/30 04:20:10;;;;;;;17.58;14.77;;;5.60;90.70;;;;;;5090389;28;20028;-69
2021/11/30 04:22:36;;;;;;;15.48;13.77;;;5.60;90.70;;;;;;5071901;28;20051;-69
2021/11/30 04:25:03;;;;;;;16.20;13.48;;;5.70;90.70;;;;;;5069347;28;20069;-69
2021/11/30 04:27:30;;;;;;;15.27;13.02;;;5.70;90.80;;;;;;5069551;28;20040;-69
2021/11/30 04:29:56;;;;;;;15.35;13.85;;;5.80;90.80;;;;;;5089545;28;20020;-69
2021/11/30 04:32:22;;;;;;;12.45;11.18;;;5.80;91.00;;;;;;5087322;28;20127;-69
2021/11/30 04:34:48;;;;;;;10.95;9.80;;;5.90;91.00;;;;;;5090320;28;20457;-69
2021/11/30 04:37:14;;;;;;;12.65;11.35;;;5.90;91.10;;;;;;5089601;28;20024;-69
2021/11/30 04:39:40;;;;;;;10.35;9.35;;;6.00;91.30;;;;;;5089912;28;20031;-68
2021/11/30 04:42:06;;;;;;;9.70;8.70;;;6.00;91.40;;;;;;5082891;28;20032;-68
2021/11/30 04:44:37;;;;;;;10.38;9.35;;;6.00;91.50;;;;;;5090656;28;20047;-69
2021/11/30 04:47:07;;;;;;;9.38;8.45;;;6.10;91.50;;;;;;5086766;28;20039;-68
2021/11/30 04:49:53;;;;;;;8.60;7.75;;;6.20;91.50;;;;;;5089791;28;20036;-69
2021/11/30 04:52:19;;;;;;;9.27;8.38;;;6.20;91.60;;;;;;5087817;28;20036;-69
2021/11/30 04:54:45;;;;;;;8.55;7.63;;;6.20;91.80;;;;;;5091555;28;20028;-69
2021/11/30 04:57:11;;;;;;;8.85;8.05;;;6.30;91.80;;;;;;5087543;28;20056;-69
2021/11/30 04:59:36;;;;;;;8.10;7.32;;;6.30;91.80;;;;;;5088937;28;20111;-68
2021/11/30 05:02:02;;;;;;;8.63;7.82;;;6.40;91.80;;;;;;5086276;28;20020;-68
2021/11/30 05:04:29;;;;;;;8.88;8.07;;;6.40;91.90;;;;;;5075938;28;20031;-68
2021/11/30 05:06:55;;;;;;;10.13;9.13;;;6.40;91.90;;;;;;5087858;28;20024;-69
2021/11/30 05:09:21;;;;;;;7.63;6.88;;;6.50;92.00;;;;;;5088358;28;20040;-69
2021/11/30 05:11:47;;;;;;;8.35;7.60;;;6.50;92.00;;;;;;5086885;28;20829;-68
2021/11/30 05:14:13;;;;;;;7.53;6.93;;;6.50;92.00;;;;;;5088428;28;20031;-69
2021/11/30 05:16:39;;;;;;;7.55;6.85;;;6.50;92.00;;;;;;5087398;28;20055;-68
2021/11/30 05:19:05;;;;;;;9.00;8.20;;;6.60;91.90;;;;;;5089043;28;20077;-69
2021/11/30 05:21:31;;;;;;;8.38;7.68;;;6.60;92.00;;;;;;5072934;28;20054;-69
2021/11/30 05:24:01;;;;;;;8.73;7.93;;;6.70;92.10;;;;;;5088392;28;20063;-68
2021/11/30 05:26:28;;;;;;;9.55;8.57;;;6.70;92.10;;;;;;5068896;28;20038;-69
2021/11/30 05:28:54;;;;;;;8.15;7.45;;;6.70;92.10;;;;;;5087758;28;20032;-68
2021/11/30 05:31:20;;;;;;;9.55;8.65;;;6.70;92.20;;;;;;5099747;28;20034;-68
2021/11/30 05:33:47;;;;;;;8.90;8.10;;;6.80;92.20;;;;;;5090731;28;20390;-69
2021/11/30 05:36:13;;;;;;;8.10;7.40;;;6.80;92.20;;;;;;5087283;28;20028;-68
2021/11/30 05:38:39;;;;;;;9.23;8.32;;;6.80;92.20;;;;;;5088247;28;20040;-69
2021/11/30 05:41:06;;;;;;;7.78;7.07;;;6.80;92.20;;;;;;5087784;28;20686;-68
2021/11/30 05:43:32;;;;;;;7.32;6.68;;;6.90;92.30;;;;;;5099984;28;20508;-68
2021/11/30 05:45:57;;;;;;;6.20;5.70;;;6.90;92.20;;;;;;5102464;28;20087;-68
2021/11/30 05:48:23;;;;;;;6.57;5.97;;;6.90;92.20;;;;;;5074700;28;20040;-69
2021/11/30 05:50:49;;;;;;;6.43;5.93;;;7.00;92.20;;;;;;5092207;28;20036;-68
2021/11/30 05:53:15;;;;;;;6.72;6.13;;;7.00;92.20;;;;;;5092789;28;20062;-68
2021/11/30 05:55:43;;;;;;;7.25;6.60;;;7.00;92.20;;;;;;5072817;28;20071;-69
2021/11/30 05:58:09;;;;;;;6.55;5.95;;;7.10;92.20;;;;;;5093081;28;20032;-68
2021/11/30 06:00:35;;;;;;;6.72;6.13;;;7.10;92.20;;;;;;5092136;28;20501;-69
2021/11/30 06:05:29;;;;;;;6.93;5.90;;;7.20;92.20;;;;;;5094549;28;20039;-68
2021/11/30 06:07:55;;;;;;;6.57;5.90;;;7.20;92.20;;;;;;5090966;28;20024;-69
2021/11/30 06:10:22;;;;;;;6.15;5.65;;;7.20;92.20;;;;;;5072631;28;20034;-69
2021/11/30 06:12:48;;;;;;;6.97;6.32;;;7.20;92.30;;;;;;5089382;28;20032;-69
2021/11/30 06:15:14;;;;;;;6.35;5.75;;;7.30;92.30;;;;;;5090109;28;20109;-69
2021/11/30 06:17:40;;;;;;;6.20;5.65;;;7.30;92.30;;;;;;5091547;28;20699;-69
2021/11/30 06:20:06;;;;;;;6.40;5.80;;;7.30;92.20;;;;;;5092343;28;20027;-69
2021/11/30 06:22:33;;;;;;;7.85;7.05;;;7.40;92.20;;;;;;5091280;28;20036;-69
2021/11/30 06:24:59;;;;;;;6.70;6.07;;;7.40;92.30;;;;;;5078969;28;20592;-70
2021/11/30 06:27:25;;;;;;;7.22;6.55;;;7.40;92.30;;;;;;5064565;28;20024;-70
2021/11/30 06:29:50;;;;;;;7.80;7.00;;;7.50;92.40;;;;;;5089922;28;20115;-70
2021/11/30 06:32:17;;;;;;;7.78;7.07;;;7.50;92.40;;;;;;5092588;28;20709;-70
2021/11/30 06:34:43;;;;;;;8.77;7.88;;;7.50;92.40;;;;;;5091888;28;20040;-69
2021/11/30 06:37:09;;;;;;;7.50;6.80;;;7.50;92.40;;;;;;5073749;28;20081;-69
2021/11/30 06:39:36;;;;;;;7.53;6.82;;;7.60;92.40;;;;;;5077527;28;20056;-69
2021/11/30 06:42:02;;;;;;;6.80;6.20;;;7.60;92.40;;;;;;5091630;28;20478;-69
2021/11/30 06:44:28;;;;;;;5.97;5.47;;;7.60;92.40;;;;;;5091084;28;20036;-69
2021/11/30 06:46:55;;;;;;;7.47;6.78;;;7.70;92.40;;;;;;5092021;28;20032;-68
2021/11/30 06:49:21;;;;;;;7.40;6.70;;;7.70;92.40;;;;;;5092315;28;20043;-70
2021/11/30 06:51:46;;;;;;;7.22;6.53;;;7.70;92.40;;;;;;5074009;28;20032;-70
2021/11/30 06:54:12;;;;;;;7.03;6.43;;;7.80;92.50;;;;;;5091960;28;20486;-71
2021/11/30 06:56:38;;;;;;;6.55;5.95;;;7.80;92.50;;;;;;5071916;28;20395;-70
2021/11/30 06:59:03;;;;;;;6.28;5.68;;;7.90;92.50;;;;;;5091684;28;20110;-70
2021/11/30 07:01:32;;;;;;;5.90;5.40;;;7.90;92.50;;;;;;5086070;28;20036;-70
2021/11/30 07:04:00;;;;;;;5.68;5.18;;;8.00;92.50;;;;;;5073704;28;20036;-70
2021/11/30 07:06:28;;;;;;;5.47;4.97;;;8.00;92.40;;;;;;5090723;28;20036;-70
2021/11/30 07:08:57;;;;;;;5.70;5.15;;;8.00;92.40;;;;;;5091600;28;20059;-70
2021/11/30 07:14:04;;;;;;;6.18;4.90;;;8.20;92.60;;;;;;5082115;28;20051;-70
2021/11/30 07:16:31;;;;;;;4.95;4.40;;;8.20;92.60;;;;;;5090990;28;20056;-71
2021/11/30 07:18:56;;;;;;;5.07;4.40;;;8.30;92.60;;;;;;5086227;28;20031;-70
2021/11/30 07:21:24;;;;;;;5.40;4.63;;;8.30;92.60;;;;;;5091690;28;20032;-70
2021/11/30 07:23:49;;;;;;;7.90;4.68;;;8.40;92.60;;;;;;5091582;28;20322;-70
2021/11/30 07:26:15;;;;;;;6.22;4.65;;;8.40;92.50;;;;;;5090753;28;20528;-70
2021/11/30 07:28:41;;;;;;;6.75;5.70;;;8.50;92.50;;;;;;5091408;28;20032;-70
2021/11/30 07:31:10;;;;;;;5.53;4.18;;;8.50;92.50;;;;;;5091270;28;20115;-70
2021/11/30 07:33:38;;;;;;;8.43;5.68;;;8.60;92.50;;;;;;5091318;28;20089;-70
2021/11/30 07:36:05;;;;;;;7.68;5.65;;;8.60;92.50;;;;;;5065994;28;20040;-69
2021/11/30 07:38:32;;;;;;;6.38;5.15;;;8.70;92.50;;;;;;5091044;28;20048;-69
2021/11/30 07:40:59;;;;;;;6.70;4.88;;;8.70;92.50;;;;;;5090545;28;20043;-68
2021/11/30 07:43:25;;;;;;;8.70;5.53;;;8.70;92.50;;;;;;5091088;28;20398;-69
2021/11/30 07:45:51;;;;;;;6.68;5.60;;;8.80;92.60;;;;;;5090585;28;20031;-71
2021/11/30 07:48:17;;;;;;;7.45;5.05;;;8.80;92.50;;;;;;5090865;28;20032;-71
2021/11/30 07:50:44;;;;;;;8.98;5.72;;;8.90;92.60;;;;;;5090944;28;20104;-71
2021/11/30 07:53:10;;;;;;;6.82;4.60;;;8.90;92.60;;;;;;5070435;28;20469;-71
2021/11/30 07:55:36;;;;;;;9.65;5.63;;;8.90;92.60;;;;;;5072057;28;20123;-71
2021/11/30 07:58:03;;;;;;;9.63;4.88;;;8.90;92.60;;;;;;5090428;28;20417;-69
2021/11/30 08:00:29;;;;;;;9.43;5.15;;;8.90;92.60;;;;;;5088882;28;20027;-69
2021/11/30 08:02:54;;;;;;;6.47;4.40;;;9.00;92.60;;;;;;5090029;28;20027;-69
2021/11/30 08:05:20;;;;;;;9.82;4.78;;;9.00;92.60;;;;;;5090418;28;20048;-69
2021/11/30 08:07:46;;;;;;;6.75;4.35;;;9.00;92.60;;;;;;5072176;28;20094;-69
2021/11/30 08:10:15;;;;;;;8.45;4.53;;;9.00;92.50;;;;;;5076144;28;20399;-69
2021/11/30 08:12:42;;;;;;;9.90;5.68;;;9.00;92.50;;;;;;5090754;28;20020;-69
2021/11/30 08:15:09;;;;;;;6.55;4.18;;;9.10;92.60;;;;;;5090680;28;20805;-68
2021/11/30 08:17:35;;;;;;;7.22;4.60;;;9.10;92.60;;;;;;5055297;28;20040;-69
2021/11/30 08:20:01;;;;;;;10.30;4.78;;;9.10;92.60;;;;;;5072154;28;20398;-69
2021/11/30 08:22:27;;;;;;;7.35;4.25;;;9.10;92.50;;;;;;5072522;28;20382;-68
2021/11/30 08:24:53;;;;;;;8.52;4.05;;;9.20;92.60;;;;;;5089957;28;20119;-69
2021/11/30 08:27:21;;;;;;;7.10;4.07;;;9.20;92.50;;;;;;5089824;28;20162;-71
2021/11/30 08:29:50;;;;;;;5.25;3.85;;;9.20;92.50;;;;;;5089853;28;20067;-69
2021/11/30 08:32:18;;;;;;;8.45;4.15;;;9.30;92.50;;;;;;5089644;28;20444;-69
2021/11/30 08:34:44;;;;;;;7.25;3.63;;;9.20;92.50;;;;;;5089438;28;20023;-69
2021/11/30 08:37:10;;;;;;;7.10;3.60;;;9.30;92.50;;;;;;5070876;28;20066;-69
2021/11/30 08:39:36;;;;;;;7.60;4.15;;;9.30;92.80;;;;;;5089923;28;20031;-69
2021/11/30 08:42:05;;;;;;;9.07;4.28;;;9.30;92.50;;;;;;5092318;28;20024;-69
2021/11/30 08:44:31;;;;;;;6.78;3.20;;;9.40;92.50;;;;;;5086661;28;20016;-68
2021/11/30 08:46:58;;;;;;;4.72;3.08;;;9.40;92.50;;;;;;5069214;28;20646;-69
2021/11/30 08:49:26;;;;;;;6.32;3.45;;;9.40;92.40;;;;;;5072655;28;20058;-69
2021/11/30 08:51:52;;;;;;;5.35;3.15;;;9.40;92.40;;;;;;5087891;28;20056;-69
2021/11/30 08:54:18;;;;;;;8.20;3.38;;;9.40;92.40;;;;;;5088766;28;20032;-69
2021/11/30 08:56:45;;;;;;;7.25;3.10;;;9.40;92.40;;;;;;5091401;28;20077;-70
2021/11/30 08:59:12;;;;;;;5.15;2.33;;;9.50;92.40;;;;;;5077017;28;20064;-69
2021/11/30 09:01:39;;;;;;;3.20;2.60;;;9.50;92.40;;;;;;5085014;28;20484;-70
2021/11/30 09:04:05;;;;;;;3.92;2.70;;;9.50;92.40;;;;;;5086103;28;20036;-70
2021/11/30 09:06:30;;;;;;;6.45;2.83;;;9.50;92.30;;;;;;5066175;28;20513;-70
2021/11/30 09:08:57;;;;;;;4.00;2.60;;;9.50;92.30;;;;;;5096127;28;20459;-70
2021/11/30 09:11:23;;;;;;;5.50;2.60;;;9.50;92.30;;;;;;5055235;28;20028;-70
2021/11/30 09:13:49;;;;;;;5.13;2.75;;;9.60;92.30;;;;;;5086570;28;20076;-70
2021/11/30 09:16:16;;;;;;;3.72;2.70;;;9.50;92.30;;;;;;5085841;28;20101;-70
2021/11/30 09:18:42;;;;;;;4.28;2.60;;;9.60;92.40;;;;;;5073527;28;20548;-70
2021/11/30 09:21:08;;;;;;;5.45;2.97;;;9.60;92.30;;;;;;5081027;28;20036;-70
2021/11/30 09:23:33;;;;;;;4.05;2.50;;;9.60;92.30;;;;;;5100333;28;20055;-70
2021/11/30 09:26:01;;;;;;;4.80;2.90;;;9.60;92.30;;;;;;5070936;28;20036;-70
2021/11/30 09:28:26;;;;;;;5.40;2.80;;;9.60;92.30;;;;;;5109198;28;20028;-70
2021/11/30 09:30:52;;;;;;;4.93;2.55;;;9.60;92.30;;;;;;5092353;28;20035;-70
2021/11/30 09:33:18;;;;;;;7.57;2.83;;;9.70;92.40;;;;;;5070471;28;20132;-70
2021/11/30 09:35:44;;;;;;;4.25;1.85;;;9.70;92.40;;;;;;5101540;28;20039;-70
2021/11/30 09:38:10;;;;;;;4.72;2.10;;;9.70;92.40;;;;;;5073119;28;20017;-70
2021/11/30 09:40:37;;;;;;;5.53;2.60;;;9.70;92.40;;;;;;5087950;28;20033;-70
2021/11/30 09:43:02;;;;;;;4.25;2.00;;;9.80;92.40;;;;;;5088079;28;20024;-70
2021/11/30 09:45:32;;;;;;;3.15;2.08;;;9.80;92.40;;;;;;5069261;28;20040;-70
2021/11/30 09:47:58;;;;;;;3.20;2.00;;;9.80;92.40;;;;;;5070434;28;20028;-70
2021/11/30 09:50:25;;;;;;;2.53;1.80;;;9.90;92.40;;;;;;5085425;28;20032;-70
2021/11/30 09:52:54;;;;;;;2.85;1.90;;;9.90;92.40;;;;;;5086007;28;20502;-70
2021/11/30 09:55:22;;;;;;;2.53;1.50;;;9.90;92.40;;;;;;5077240;28;20032;-70
2021/11/30 09:57:50;;;;;;;1.38;1.00;;;9.90;92.30;;;;;;5071384;28;20028;-69
2021/11/30 10:00:16;;;;;;;1.20;0.70;;;9.80;92.20;;;;;;5070439;28;20040;-68
2021/11/30 10:02:42;;;;;;;0.85;0.43;;;9.80;92.20;;;;;;5087945;28;20024;-69
2021/11/30 10:05:08;;;;;;;4.60;0.50;;;9.80;92.10;;;;;;5088450;28;20040;-69
2021/11/30 10:07:49;;;;;;;0.60;0.40;;;9.80;92.00;;;;;;5085491;28;20043;-68
2021/11/30 10:10:28;;;;;;;1.00;0.50;;;9.80;92.00;;;;;;5068625;28;20037;-69
2021/11/30 10:13:12;;;;;;;1.00;0.50;;;9.80;92.00;;;;;;5086410;28;20028;-69
2021/11/30 10:15:47;;;;;;;1.13;0.50;;;9.70;91.90;;;;;;5077422;28;20558;-68
2021/11/30 10:18:25;;;;;;;0.30;0.30;;;9.70;91.90;;;;;;5081322;28;20029;-69
2021/11/30 10:21:20;;;;;;;1.15;0.40;;;9.70;92.00;;;;;;5080690;28;20034;-69
2021/11/30 10:23:47;;;;;;;1.13;0.45;;;9.70;91.90;;;;;;5079545;28;20048;-69
2021/11/30 10:26:14;;;;;;;0.70;0.50;;;9.70;91.90;;;;;;5069784;28;20051;-69
2021/11/30 10:28:40;;;;;;;0.75;0.40;;;9.70;91.90;;;;;;5085100;28;20039;-69
2021/11/30 10:31:09;;;;;;;3.33;0.40;;;9.70;91.90;;;;;;5066714;28;20036;-69
2021/11/30 10:33:35;;;;;;;0.57;0.30;;;9.70;91.90;;;;;;5088962;28;20560;-69
2021/11/30 10:36:02;;;;;;;2.60;0.60;;;9.70;91.80;;;;;;5089831;28;20024;-69
2021/11/30 10:38:34;;;;;;;5.00;0.80;;;9.70;91.80;;;;;;5077540;28;20027;-69
2021/11/30 10:41:29;;;;;;;2.05;0.57;;;9.70;91.70;;;;;;5087880;28;20085;-69
2021/11/30 10:44:04;;;;;;;2.80;0.70;;;9.70;91.50;;;;;;5071577;28;20059;-69
2021/11/30 10:46:34;;;;;;;3.90;0.65;;;9.60;91.50;;;;;;5091109;28;20093;-69
2021/11/30 10:49:01;;;;;;;1.77;0.57;;;9.60;91.50;;;;;;5089116;28;20412;-69
2021/11/30 10:51:28;;;;;;;3.63;0.65;;;9.60;91.50;;;;;;5090891;28;20034;-69
2021/11/30 10:53:59;;;;;;;3.35;0.73;;;9.50;91.50;;;;;;5092511;28;20027;-69
2021/11/30 10:56:26;;;;;;;4.50;0.70;;;9.50;91.50;;;;;;5089031;28;20113;-69
2021/11/30 10:58:55;;;;;;;3.83;0.73;;;9.50;91.60;;;;;;5089415;28;20036;-69
2021/11/30 11:01:23;;;;;;;2.40;0.50;;;9.50;91.60;;;;;;5087471;28;20019;-69
2021/11/30 11:04:08;;;;;;;1.58;0.50;;;9.50;91.60;;;;;;5074579;28;20039;-69
2021/11/30 11:06:36;;;;;;;1.83;0.68;;;9.50;91.60;;;;;;5092890;28;20028;-69
2021/11/30 11:09:04;;;;;;;1.92;0.40;;;9.50;91.60;;;;;;5079444;28;20530;-69
2021/11/30 11:11:45;;;;;;;1.60;0.47;;;9.40;91.60;;;;;;5093354;28;20028;-69
2021/11/30 11:14:25;;;;;;;8.05;0.80;;;9.50;91.60;;;;;;5091193;28;20111;-69
2021/11/30 11:16:59;;;;;;;2.85;0.65;;;9.40;91.60;;;;;;5090016;28;20111;-69
2021/11/30 11:19:39;;;;;;;3.05;0.60;;;9.50;91.60;;;;;;5090780;28;20024;-69
2021/11/30 11:22:19;;;;;;;4.47;0.75;;;9.50;91.60;;;;;;5091527;28;20032;-69
2021/11/30 11:24:50;;;;;;;3.88;0.57;;;9.50;91.50;;;;;;5089302;28;20467;-69
2021/11/30 11:27:17;;;;;;;6.30;1.05;;;9.50;91.60;;;;;;5089623;28;20028;-69
2021/11/30 11:29:44;;;;;;;5.28;0.90;;;9.50;91.60;;;;;;5098897;28;20055;-70
2021/11/30 11:32:11;;;;;;;1.90;0.65;;;9.50;91.60;;;;;;5072309;28;20035;-69
2021/11/30 11:34:38;;;;;;;5.82;0.85;;;9.50;91.70;;;;;;5088025;28;20111;-69
2021/11/30 11:37:10;;;;;;;4.90;1.00;;;9.50;91.70;;;;;;5088681;28;20048;-69
2021/11/30 11:39:37;;;;;;;2.08;0.50;;;9.50;91.80;;;;;;5089954;28;20024;-69
2021/11/30 11:42:09;;;;;;;3.00;0.70;;;9.50;91.80;;;;;;5090204;28;20020;-68
2021/11/30 11:44:35;;;;;;;6.57;1.07;;;9.50;92.00;;;;;;5089559;28;20023;-69
2021/11/30 11:47:04;;;;;;;4.18;0.85;;;9.50;91.70;;;;;;5077325;28;20043;-69
2021/11/30 11:49:35;;;;;;;4.25;0.80;;;9.50;91.70;;;;;;5086136;28;20096;-69
2021/11/30 11:52:03;;;;;;;5.55;0.77;;;9.50;91.70;;;;;;5078954;28;20020;-69
2021/11/30 11:54:32;;;;;;;3.80;0.70;;;9.50;91.70;;;;;;5086307;28;20020;-69
2021/11/30 11:57:08;;;;;;;1.85;0.60;;;9.60;91.70;;;;;;5081551;28;20933;-70
2021/11/30 11:59:43;;;;;;;5.45;1.20;;;9.60;91.70;;;;;;5084283;28;20441;-69
2021/11/30 12:02:27;;;;;;;1.98;0.70;;;9.60;91.70;;;;;;5087827;28;20395;-69
2021/11/30 12:04:58;;;;;;;5.63;0.95;;;9.60;91.70;;;;;;5092630;28;20023;-70
2021/11/30 12:07:27;;;;;;;4.68;0.93;;;9.60;91.70;;;;;;5087902;28;20032;-70
2021/11/30 12:10:19;;;;;;;2.28;0.60;;;9.60;91.70;;;;;;5092949;28;20024;-70
2021/11/30 12:13:00;;;;;;;2.77;0.70;;;9.60;91.70;;;;;;5086308;28;20035;-69
2021/11/30 12:15:34;;;;;;;5.38;0.88;;;9.60;91.70;;;;;;5088137;28;20478;-69
2021/11/30 12:18:40;;;;;;;5.05;0.90;;;9.60;91.70;;;;;;5069282;28;20036;-69
2021/11/30 12:21:15;;;;;;;3.83;0.70;;;9.60;91.70;;;;;;5104723;28;20020;-69
2021/11/30 12:23:42;;;;;;;3.42;0.77;;;9.60;91.60;;;;;;5086544;28;20028;-69
2021/11/30 12:26:31;;;;;;;2.03;0.60;;;9.60;91.60;;;;;;5087741;28;20040;-69
2021/11/30 12:28:58;;;;;;;4.75;1.15;;;9.60;91.60;;;;;;5088236;28;20032;-70
2021/11/30 12:31:34;;;;;;;3.47;0.80;;;9.70;91.90;;;;;;5068461;28;20939;-70
2021/11/30 12:34:00;;;;;;;4.88;0.80;;;9.70;91.60;;;;;;5067786;28;20081;-69
2021/11/30 12:36:33;;;;;;;2.92;0.70;;;9.70;91.50;;;;;;5088062;28;20047;-69
2021/11/30 12:39:01;;;;;;;2.53;0.73;;;9.70;91.60;;;;;;5095805;28;20058;-69
2021/11/30 12:41:27;;;;;;;2.80;0.70;;;9.70;91.50;;;;;;5091452;28;20020;-69
2021/11/30 12:43:57;;;;;;;2.63;0.77;;;9.70;91.50;;;;;;5079491;28;20054;-70
2021/11/30 12:46:41;;;;;;;2.08;0.70;;;9.70;91.50;;;;;;5086477;28;20032;-70
2021/11/30 12:49:25;;;;;;;3.10;0.75;;;9.70;91.50;;;;;;5067562;28;20511;-70
2021/11/30 12:52:08;;;;;;;4.80;1.00;;;9.60;91.50;;;;;;5086434;28;20027;-69
2021/11/30 12:54:39;;;;;;;1.92;0.77;;;9.70;91.50;;;;;;5086265;28;20074;-69
2021/11/30 12:57:08;;;;;;;3.25;0.80;;;9.60;91.50;;;;;;5087058;28;20024;-70
2021/11/30 12:59:37;;;;;;;3.53;0.80;;;9.70;91.50;;;;;;5088007;28;20127;-69
2021/11/30 13:02:24;;;;;;;4.45;0.70;;;9.70;91.50;;;;;;5090602;28;20429;-69
2021/11/30 13:04:55;;;;;;;3.97;0.82;;;9.70;91.50;;;;;;5093934;28;20043;-69
2021/11/30 13:07:24;;;;;;;1.95;0.77;;;9.70;91.50;;;;;;5083197;28;20024;-69
2021/11/30 13:09:53;;;;;;;2.28;0.95;;;9.70;91.40;;;;;;5084567;28;20111;-70